createdAt,value
2022-08-28T00:01:39.963Z,8.38
2022-08-28T00:04:42.536Z,8.30
2022-08-28T00:07:47.869Z,8.60
2022-08-28T00:10:50.074Z,7.65
2022-08-28T00:13:51.878Z,8.13
2022-08-28T00:16:54.704Z,7.75
2022-08-28T00:19:56.656Z,7.32
2022-08-28T00:22:59.575Z,7.93
2022-08-28T00:26:02.606Z,7.75
2022-08-28T00:29:06.858Z,7.63
2022-08-28T00:32:08.904Z,8.02
2022-08-28T00:35:12.516Z,7.70
2022-08-28T00:38:15.440Z,7.28
2022-08-28T00:41:17.661Z,7.43
2022-08-28T00:44:29.035Z,7.40
2022-08-28T00:47:30.899Z,7.28
2022-08-28T00:50:54.598Z,7.72
2022-08-28T00:54:07.371Z,8.07
2022-08-28T00:57:15.349Z,7.47
2022-08-28T01:00:25.445Z,7.57
2022-08-28T01:03:27.525Z,8.23
2022-08-28T01:06:29.239Z,7.18
2022-08-28T01:09:32.850Z,7.50
2022-08-28T01:12:35.807Z,7.28
2022-08-28T01:15:39.095Z,7.85
2022-08-28T01:18:43.197Z,8.05
2022-08-28T01:22:04.809Z,7.30
2022-08-28T01:25:11.507Z,6.90
2022-08-28T01:28:14.501Z,6.25
2022-08-28T01:31:17.270Z,6.82
2022-08-28T01:34:19.146Z,7.45
2022-08-28T01:37:21.124Z,7.13
2022-08-28T01:40:32.646Z,6.75
2022-08-28T01:43:34.562Z,6.10
2022-08-28T01:46:36.570Z,6.80
2022-08-28T01:49:38.369Z,7.07
2022-08-28T01:52:40.405Z,7.10
2022-08-28T01:55:43.532Z,6.50
2022-08-28T01:58:48.160Z,6.13
2022-08-28T02:01:50.040Z,6.57
2022-08-28T02:04:53.310Z,6.50
2022-08-28T02:07:56.062Z,6.30
2022-08-28T02:10:58.028Z,7.05
2022-08-28T02:14:01.503Z,7.55
2022-08-28T02:17:03.325Z,7.63
2022-08-28T02:20:06.028Z,8.40
2022-08-28T02:23:07.786Z,6.68
2022-08-28T02:26:11.193Z,6.22
2022-08-28T02:29:13.551Z,6.93
2022-08-28T02:32:15.474Z,6.93
2022-08-28T02:35:19.649Z,6.00
2022-08-28T02:38:22.702Z,6.70
2022-08-28T02:41:24.694Z,6.55
2022-08-28T02:44:26.428Z,6.70
2022-08-28T02:47:28.317Z,6.93
2022-08-28T02:50:31.181Z,7.22
2022-08-28T02:53:33.035Z,7.20
2022-08-28T02:56:34.745Z,6.75
2022-08-28T02:59:38.001Z,6.38
2022-08-28T03:02:41.708Z,5.90
2022-08-28T03:05:43.659Z,6.47
2022-08-28T03:08:45.436Z,5.80
2022-08-28T03:11:47.256Z,5.93
2022-08-28T03:14:49.074Z,6.05
2022-08-28T03:17:51.174Z,6.25
2022-08-28T03:20:54.105Z,6.30
2022-08-28T03:23:55.842Z,5.78
2022-08-28T03:26:58.408Z,5.80
2022-08-28T03:30:00.256Z,6.05
2022-08-28T03:33:02.120Z,6.07
2022-08-28T03:36:04.886Z,6.47
2022-08-28T03:39:06.974Z,5.90
2022-08-28T03:42:09.127Z,6.00
2022-08-28T03:45:14.714Z,6.40
2022-08-28T03:48:16.814Z,6.00
2022-08-28T03:51:29.559Z,6.55
2022-08-28T03:54:33.516Z,7.32
2022-08-28T03:57:36.915Z,6.65
2022-08-28T04:00:40.415Z,7.03
2022-08-28T04:03:42.170Z,6.32
2022-08-28T04:06:43.938Z,7.88
2022-08-28T04:09:46.384Z,7.93
2022-08-28T04:12:48.262Z,7.70
2022-08-28T04:16:02.673Z,6.00
2022-08-28T04:19:08.340Z,6.72
2022-08-28T04:22:10.057Z,6.35
2022-08-28T04:25:11.821Z,5.93
2022-08-28T04:28:13.772Z,6.13
2022-08-28T04:31:17.044Z,6.30
2022-08-28T04:34:19.630Z,6.20
2022-08-28T04:37:21.765Z,6.07
2022-08-28T04:40:28.115Z,6.93
2022-08-28T04:43:29.906Z,6.80
2022-08-28T04:46:31.835Z,6.47
2022-08-28T04:49:33.735Z,6.40
2022-08-28T04:52:35.487Z,6.55
2022-08-28T04:55:54.903Z,6.28
2022-08-28T04:58:57.402Z,6.57
2022-08-28T05:01:59.195Z,5.57
2022-08-28T05:05:00.963Z,6.38
2022-08-28T05:08:02.880Z,7.13
2022-08-28T05:11:32.655Z,7.47
2022-08-28T05:14:36.745Z,8.55
2022-08-28T05:17:38.557Z,6.80
2022-08-28T05:20:44.718Z,8.95
2022-08-28T05:26:49.409Z,7.05
2022-08-28T05:29:51.190Z,7.22
2022-08-28T05:32:53.663Z,7.78
2022-08-28T05:35:55.468Z,6.28
2022-08-28T05:38:58.535Z,7.85
2022-08-28T05:42:00.320Z,8.02
2022-08-28T05:45:02.212Z,7.68
2022-08-28T05:48:04.168Z,8.23
2022-08-28T05:51:11.603Z,8.65
2022-08-28T05:54:14.997Z,9.43
2022-08-28T05:57:16.674Z,10.45
2022-08-28T06:00:18.494Z,10.10
2022-08-28T06:03:20.718Z,9.70
2022-08-28T06:06:24.821Z,9.80
2022-08-28T06:09:30.068Z,10.35
2022-08-28T06:12:32.097Z,9.85
2022-08-28T06:15:34.146Z,10.00
2022-08-28T06:18:35.941Z,9.63
2022-08-28T06:21:39.045Z,10.27
2022-08-28T06:24:40.874Z,10.23
2022-08-28T06:27:48.053Z,10.93
2022-08-28T06:31:17.875Z,11.25
2022-08-28T06:34:14.141Z,11.15
2022-08-28T06:37:15.900Z,11.05
2022-08-28T06:40:17.664Z,11.00
2022-08-28T06:43:22.701Z,11.73
2022-08-28T06:46:25.586Z,10.98
2022-08-28T06:49:27.479Z,10.77
2022-08-28T06:52:30.348Z,9.75
2022-08-28T06:55:32.168Z,10.57
2022-08-28T06:58:43.428Z,11.07
2022-08-28T07:01:55.565Z,10.95
2022-08-28T07:04:57.523Z,10.40
2022-08-28T07:07:59.367Z,10.55
2022-08-28T07:11:28.789Z,10.80
2022-08-28T07:14:30.586Z,10.10
2022-08-28T07:17:32.783Z,9.88
2022-08-28T07:20:34.608Z,9.65
2022-08-28T07:23:38.114Z,10.10
2022-08-28T07:26:42.457Z,10.23
2022-08-28T07:29:44.368Z,10.43
2022-08-28T07:32:49.753Z,10.82
2022-08-28T07:35:51.543Z,10.40
2022-08-28T07:38:55.705Z,9.60
2022-08-28T07:41:57.378Z,10.90
2022-08-28T07:44:59.442Z,11.23
2022-08-28T07:48:05.809Z,11.07
2022-08-28T07:51:10.463Z,10.88
2022-08-28T07:54:17.589Z,11.98
2022-08-28T07:57:21.260Z,11.00
2022-08-28T08:00:24.655Z,11.52
2022-08-28T08:03:26.749Z,11.38
2022-08-28T08:06:33.130Z,11.52
2022-08-28T08:09:39.013Z,11.80
2022-08-28T08:12:42.796Z,11.35
2022-08-28T08:15:44.807Z,11.35
2022-08-28T08:18:48.787Z,11.77
2022-08-28T08:21:53.236Z,12.00
2022-08-28T08:24:57.484Z,12.23
2022-08-28T08:27:59.688Z,12.45
2022-08-28T08:31:09.477Z,10.73
2022-08-28T08:34:11.564Z,10.63
2022-08-28T08:37:14.437Z,11.30
2022-08-28T08:40:19.610Z,11.32
2022-08-28T08:43:23.259Z,11.60
2022-08-28T08:46:34.135Z,9.95
2022-08-28T08:49:41.403Z,9.20
2022-08-28T08:53:03.514Z,9.75
2022-08-28T08:56:06.419Z,9.80
2022-08-28T08:59:16.851Z,9.60
2022-08-28T09:02:31.289Z,9.30
2022-08-28T09:05:48.513Z,8.38
2022-08-28T09:08:59.155Z,8.20
2022-08-28T09:12:05.755Z,8.27
2022-08-28T09:15:18.480Z,8.70
2022-08-28T09:18:34.681Z,8.82
2022-08-28T09:24:45.373Z,8.48
2022-08-28T09:27:47.953Z,8.65
2022-08-28T09:31:06.810Z,7.43
2022-08-28T09:34:25.303Z,8.30
2022-08-28T09:37:29.991Z,8.13
2022-08-28T09:40:51.751Z,8.70
2022-08-28T09:43:53.935Z,8.23
2022-08-28T09:46:55.758Z,7.82
2022-08-28T09:50:16.353Z,8.45
2022-08-28T09:53:22.102Z,7.45
2022-08-28T09:56:41.956Z,7.57
2022-08-28T09:59:43.793Z,7.53
2022-08-28T10:03:10.571Z,7.35
2022-08-28T10:06:38.771Z,6.70
2022-08-28T10:10:17.335Z,6.75
2022-08-28T10:13:30.961Z,6.07
2022-08-28T10:16:47.210Z,6.90
2022-08-28T10:20:13.237Z,6.15
2022-08-28T10:23:30.690Z,6.07
2022-08-28T10:26:59.688Z,6.03
2022-08-28T10:30:13.337Z,5.80
2022-08-28T10:33:52.350Z,5.38
2022-08-28T10:37:24.206Z,5.68
2022-08-28T10:40:34.877Z,5.72
2022-08-28T10:43:48.104Z,5.85
2022-08-28T10:46:55.664Z,5.43
2022-08-28T10:50:05.230Z,5.82
2022-08-28T10:53:14.590Z,5.75
2022-08-28T10:56:25.609Z,5.38
2022-08-28T10:59:31.994Z,5.45
2022-08-28T11:02:37.464Z,6.25
2022-08-28T11:06:11.858Z,5.93
2022-08-28T11:09:29.948Z,5.90
2022-08-28T11:12:41.793Z,6.13
2022-08-28T11:15:52.643Z,5.50
2022-08-28T11:19:16.007Z,5.40
2022-08-28T11:22:23.450Z,5.50
2022-08-28T11:25:35.676Z,5.30
2022-08-28T11:28:47.511Z,5.03
2022-08-28T11:32:29.534Z,5.60
2022-08-28T11:35:42.068Z,5.47
2022-08-28T11:38:44.031Z,5.40
2022-08-28T11:42:10.918Z,5.20
2022-08-28T11:45:40.018Z,5.45
2022-08-28T11:48:53.951Z,5.20
2022-08-28T11:52:20.599Z,5.05
2022-08-28T11:55:34.141Z,5.32
2022-08-28T11:59:10.641Z,5.15
2022-08-28T12:02:40.749Z,5.03
2022-08-28T12:05:45.894Z,5.20
2022-08-28T12:08:47.828Z,4.80
2022-08-28T12:11:51.623Z,5.45
2022-08-28T12:14:56.346Z,5.18
2022-08-28T12:18:03.014Z,5.60
2022-08-28T12:21:08.712Z,4.95
2022-08-28T12:24:35.147Z,4.95
2022-08-28T12:27:39.125Z,4.90
2022-08-28T12:31:06.941Z,4.80
2022-08-28T12:34:31.762Z,5.32
2022-08-28T12:37:52.636Z,5.00
2022-08-28T12:40:58.043Z,5.15
2022-08-28T12:44:00.635Z,5.05
2022-08-28T12:47:02.445Z,5.03
2022-08-28T12:50:22.680Z,4.90
2022-08-28T12:53:24.976Z,5.05
2022-08-28T12:56:34.059Z,4.72
2022-08-28T12:59:42.183Z,5.13
2022-08-28T13:02:46.499Z,4.78
2022-08-28T13:06:00.256Z,5.00
2022-08-28T13:09:14.833Z,5.28
2022-08-28T13:12:22.789Z,4.70
2022-08-28T13:16:02.263Z,4.88
2022-08-28T13:19:04.192Z,4.43
2022-08-28T13:22:27.939Z,4.43
2022-08-28T13:25:38.770Z,4.63
2022-08-28T13:28:42.872Z,4.60
2022-08-28T13:31:45.280Z,4.57
2022-08-28T13:35:25.558Z,4.55
2022-08-28T13:38:28.319Z,4.85
2022-08-28T13:41:33.068Z,4.63
2022-08-28T13:44:54.536Z,4.53
2022-08-28T13:47:56.337Z,4.32
2022-08-28T13:51:14.269Z,4.80
2022-08-28T13:54:25.224Z,4.80
2022-08-28T13:57:29.655Z,4.40
2022-08-28T14:00:36.818Z,4.28
2022-08-28T14:03:42.143Z,4.70
2022-08-28T14:09:47.130Z,4.07
2022-08-28T14:12:50.271Z,4.28
2022-08-28T14:15:52.447Z,4.38
2022-08-28T14:18:54.750Z,4.68
2022-08-28T14:21:57.622Z,4.07
2022-08-28T14:24:59.373Z,4.53
2022-08-28T14:28:01.327Z,4.32
2022-08-28T14:31:08.942Z,4.28
2022-08-28T14:34:17.637Z,4.07
2022-08-28T14:37:20.111Z,4.40
2022-08-28T14:40:22.358Z,3.88
2022-08-28T14:43:24.272Z,4.38
2022-08-28T14:46:33.814Z,4.15
2022-08-28T14:49:36.026Z,4.22
2022-08-28T14:52:39.002Z,4.25
2022-08-28T14:55:50.605Z,3.88
2022-08-28T14:58:52.430Z,4.45
2022-08-28T15:02:02.202Z,4.20
2022-08-28T15:05:04.311Z,4.22
2022-08-28T15:08:14.014Z,4.18
2022-08-28T15:11:18.964Z,4.20
2022-08-28T15:14:20.703Z,3.97
2022-08-28T15:17:23.660Z,4.18
2022-08-28T15:20:45.364Z,3.70
2022-08-28T15:23:50.573Z,3.88
2022-08-28T15:29:56.346Z,4.07
2022-08-28T15:33:28.979Z,3.80
2022-08-28T15:36:30.907Z,3.72
2022-08-28T15:39:56.217Z,4.22
2022-08-28T15:42:58.796Z,3.70
2022-08-28T15:46:21.067Z,3.88
2022-08-28T15:49:25.125Z,3.65
2022-08-28T15:52:27.118Z,3.90
2022-08-28T15:55:30.404Z,3.60
2022-08-28T15:58:32.117Z,3.75
2022-08-28T16:01:35.868Z,4.07
2022-08-28T16:04:41.297Z,3.67
2022-08-28T16:07:48.372Z,4.10
2022-08-28T16:10:51.649Z,3.35
2022-08-28T16:13:54.193Z,3.58
2022-08-28T16:16:56.262Z,3.40
2022-08-28T16:19:58.061Z,3.88
2022-08-28T16:22:59.880Z,3.33
2022-08-28T16:26:05.541Z,3.75
2022-08-28T16:29:07.818Z,3.28
2022-08-28T16:32:09.656Z,3.70
2022-08-28T16:35:15.056Z,3.85
2022-08-28T16:38:17.683Z,3.88
2022-08-28T16:41:24.963Z,3.53
2022-08-28T16:44:30.188Z,3.83
2022-08-28T16:47:33.622Z,3.40
2022-08-28T16:50:35.638Z,3.40
2022-08-28T16:53:39.033Z,3.50
2022-08-28T16:56:40.816Z,3.53
2022-08-28T16:59:43.440Z,3.63
2022-08-28T17:02:45.594Z,3.30
2022-08-28T17:05:47.462Z,3.17
2022-08-28T17:08:52.291Z,3.47
2022-08-28T17:11:59.024Z,3.45
2022-08-28T17:15:01.563Z,3.80
2022-08-28T17:18:03.276Z,3.90
2022-08-28T17:21:24.084Z,3.67
2022-08-28T17:24:25.985Z,4.00
2022-08-28T17:27:28.267Z,6.35
2022-08-28T17:30:30.370Z,4.22
2022-08-28T17:33:32.777Z,4.20
2022-08-28T17:36:36.787Z,3.92
2022-08-28T17:39:38.661Z,3.72
2022-08-28T17:42:40.652Z,3.70
2022-08-28T17:45:42.595Z,3.40
2022-08-28T17:48:47.943Z,3.70
2022-08-28T17:51:57.790Z,4.20
2022-08-28T17:55:00.201Z,3.67
2022-08-28T17:58:02.734Z,3.90
2022-08-28T18:01:05.076Z,3.70
2022-08-28T18:04:06.849Z,3.60
2022-08-28T18:07:09.095Z,3.70
2022-08-28T18:10:11.798Z,3.30
2022-08-28T18:13:15.029Z,3.53
2022-08-28T18:16:17.232Z,3.60
2022-08-28T18:19:19.800Z,4.30
2022-08-28T18:22:21.486Z,3.60
2022-08-28T18:25:41.614Z,3.65
2022-08-28T18:28:45.128Z,3.67
2022-08-28T18:31:46.845Z,3.75
2022-08-28T18:34:49.008Z,4.10
2022-08-28T18:37:51.278Z,3.80
2022-08-28T18:40:53.574Z,3.83
2022-08-28T18:43:56.298Z,3.72
2022-08-28T18:47:00.883Z,4.00
2022-08-28T18:50:05.042Z,3.90
2022-08-28T18:53:06.937Z,3.78
2022-08-28T18:56:08.809Z,4.00
2022-08-28T18:59:12.692Z,3.75
2022-08-28T19:02:15.975Z,3.72
2022-08-28T19:05:17.903Z,3.72
2022-08-28T19:08:19.614Z,4.00
2022-08-28T19:11:21.458Z,3.88
2022-08-28T19:14:23.700Z,4.18
2022-08-28T19:17:26.733Z,4.43
2022-08-28T19:20:30.008Z,4.28
2022-08-28T19:23:32.813Z,3.88
2022-08-28T19:26:34.969Z,4.45
2022-08-28T19:29:38.368Z,4.45
2022-08-28T19:32:41.561Z,4.22
2022-08-28T19:35:43.943Z,4.53
2022-08-28T19:38:45.766Z,4.22
2022-08-28T19:41:47.467Z,4.25
2022-08-28T19:44:59.598Z,4.28
2022-08-28T19:48:01.839Z,4.22
2022-08-28T19:51:14.355Z,4.57
2022-08-28T19:54:19.786Z,4.00
2022-08-28T19:57:21.400Z,4.50
2022-08-28T20:00:29.519Z,4.25
2022-08-28T20:03:31.484Z,4.18
2022-08-28T20:06:35.061Z,4.22
2022-08-28T20:09:37.034Z,4.47
2022-08-28T20:12:39.943Z,4.07
2022-08-28T20:15:50.073Z,4.30
2022-08-28T20:18:52.116Z,4.45
2022-08-28T20:21:54.649Z,3.92
2022-08-28T20:24:56.341Z,4.13
2022-08-28T20:28:01.555Z,4.38
2022-08-28T20:31:08.746Z,4.10
2022-08-28T20:34:12.268Z,4.25
2022-08-28T20:37:14.210Z,4.20
2022-08-28T20:40:19.916Z,4.30
2022-08-28T20:46:23.584Z,4.55
2022-08-28T20:49:25.407Z,4.35
2022-08-28T20:52:27.176Z,4.25
2022-08-28T20:55:28.915Z,4.35
2022-08-28T20:58:30.680Z,4.05
2022-08-28T21:01:33.838Z,4.45
2022-08-28T21:04:36.910Z,4.40
2022-08-28T21:07:40.416Z,4.45
2022-08-28T21:10:43.316Z,4.00
2022-08-28T21:13:45.217Z,4.30
2022-08-28T21:16:47.029Z,4.45
2022-08-28T21:19:52.019Z,4.55
2022-08-28T21:22:54.432Z,4.38
2022-08-28T21:25:56.128Z,4.20
2022-08-28T21:28:57.887Z,4.15
2022-08-28T21:32:00.013Z,4.32
2022-08-28T21:35:04.357Z,4.05
2022-08-28T21:38:06.064Z,4.28
2022-08-28T21:41:12.354Z,4.43
2022-08-28T21:44:14.281Z,3.92
2022-08-28T21:47:16.079Z,4.03
2022-08-28T21:50:18.340Z,4.18
2022-08-28T21:53:20.069Z,4.15
2022-08-28T21:56:24.840Z,4.15
2022-08-28T21:59:26.680Z,4.20
2022-08-28T22:02:34.407Z,4.55
2022-08-28T22:05:36.250Z,3.90
2022-08-28T22:08:39.301Z,4.40
2022-08-28T22:11:41.381Z,4.00
2022-08-28T22:14:43.673Z,4.05
2022-08-28T22:17:45.405Z,3.92
2022-08-28T22:21:06.295Z,3.78
2022-08-28T22:24:09.014Z,3.95
2022-08-28T22:27:13.472Z,4.20
2022-08-28T22:30:15.262Z,4.05
2022-08-28T22:33:16.917Z,3.80
2022-08-28T22:36:20.006Z,3.97
2022-08-28T22:39:21.755Z,4.55
2022-08-28T22:42:23.611Z,3.92
2022-08-28T22:45:25.730Z,3.95
2022-08-28T22:48:27.472Z,4.28
2022-08-28T22:51:34.458Z,4.55
2022-08-28T22:54:36.324Z,4.38
2022-08-28T22:57:38.138Z,4.20
2022-08-28T23:00:41.178Z,4.03
2022-08-28T23:03:43.413Z,4.38
2022-08-28T23:06:45.381Z,4.15
2022-08-28T23:09:47.504Z,4.03
2022-08-28T23:12:49.943Z,4.13
2022-08-28T23:15:51.765Z,4.50
2022-08-28T23:19:08.658Z,4.18
2022-08-28T23:22:11.280Z,4.20
2022-08-28T23:25:15.994Z,4.28
2022-08-28T23:28:18.918Z,4.60
2022-08-28T23:31:20.994Z,4.53
2022-08-28T23:34:23.572Z,4.20
2022-08-28T23:37:26.026Z,4.03
2022-08-28T23:40:28.137Z,3.92
2022-08-28T23:43:32.479Z,4.28
2022-08-28T23:46:34.383Z,4.38
2022-08-28T23:49:41.668Z,4.15
2022-08-28T23:52:45.269Z,4.15
2022-08-28T23:55:48.626Z,3.78
2022-08-28T23:58:53.221Z,4.15
